Liberty, IN

2:50 AM EST on March 06, 2015 (GMT -0500)
APRSWXNET Liberty IN US | Change Station
CLOSE
Current Station
Personal Weather Station
Location: Liberty, IN
Elevation: 977 ft
Nearby Weather Stations

Elev 977 ft 39.60 °N, 84.90 °W | Updated 31 minutes ago

Partly Cloudy
Partly Cloudy
11 °F
Feels Like 11 °F
N
0
Wind Variable Wind from NNW
Gusts 4.0 mph

Today
High -- | Low -- °F
--% Chance of Precip.
Yesterday
High -- | Low -- °F
Precip. -- in
7:05 AM 6:36 PM
Full, 100% visible
Pressure 30.61 in
Visibility 8.0 miles
Clouds Clear
Windchill 11 °F
Dew Point 7 °F
Humidity 85%
Rainfall in
Snow Depth Not available.
UV 0 out of 12
Pollen .60 out of 12
Air Quality Not available.
Flu Activity Not available.
METAR KHAO 060653Z AUTO 00000KT 8SM CLR M16/M18 A3057 RMK AO2 SNB09E30 SLP363 P0000 I1000 T11561178

More Conditions Fewer Conditions

Pressure 30.61 in
Visibility 8.0 miles
Clouds Clear
Windchill 11 °F
Dew Point 7 °F
Humidity 85%
Rainfall in
Snow Depth Not available.
UV 0 out of 12
Pollen .60 out of 12
Air Quality Not available.
Flu Activity Not available.
METAR KHAO 060653Z AUTO 00000KT 8SM CLR M16/M18 A3057 RMK AO2 SNB09E30 SLP363 P0000 I1000 T11561178

More Conditions Fewer Conditions

10-Day Weather Forecast

Almanac

Astronomy

Mar. 06, 2015 Rise Set
Actual Time
Civil Twilight
Nautical Twilight
Astronomical Twilight
Moon
Length of Visible Light
Length of Day
Tomorrow will be .
, % of the Moon is Illuminated

Today's Extremes

State Highs State Lows

Community

WunderPhotos

Upload Photos

1,803,199 photos uploaded!

WunderBlogs® & News

Nearby

Air Quality

  Air Quality AQ Index Pollutant
Not available.

Snow Depth

Station Depth Elevation

Earthquake Activity

City Distance Mag. Time & Date
Minimum magnitude displayed is 2.5.

Coastal Water Temperatures

Place Temperature

Nearby Weather Stations